Time;durP1;ratioP1;P1;durP2;ratioP2;P2;SDS_P1;SDS_P2;PMS_P1;PMS_P2;Temp;Humidity;BMP_temperature;BMP_pressure;BME280_temperature;BME280_humidity;BME280_pressure;Samples;Min_cycle;Max_cycle;Signal;HPM_P1;HPM_P2
2022/12/01 00:01:07;;;;;;;65.57;35.40;;;;;;;2.22;100.00;96706.72;5011658;28;102624;-68
2022/12/01 00:03:36;;;;;;;63.23;33.63;;;;;;;2.18;100.00;96703.66;5043401;27;105406;-68
2022/12/01 00:06:06;;;;;;;67.30;34.23;;;;;;;2.17;100.00;96706.47;5044078;27;102244;-68
2022/12/01 00:08:33;;;;;;;60.13;32.27;;;;;;;2.13;100.00;96700.00;5011607;28;102301;-68
2022/12/01 00:11:05;;;;;;;60.63;32.67;;;;;;;2.04;100.00;96701.16;5010935;28;102539;-68
2022/12/01 00:13:32;;;;;;;65.43;32.57;;;;;;;2.05;100.00;96694.88;5011696;28;101669;-68
2022/12/01 00:16:09;;;;;;;59.30;31.43;;;;;;;1.96;100.00;96698.63;5011841;28;102578;-68
2022/12/01 00:18:37;;;;;;;64.63;34.57;;;;;;;1.97;100.00;96689.78;5046643;27;105299;-68
2022/12/01 00:21:04;;;;;;;63.60;32.97;;;;;;;1.99;100.00;96693.03;5009881;28;105714;-68
2022/12/01 00:23:31;;;;;;;63.43;34.13;;;;;;;2.00;100.00;96698.09;5010910;28;102585;-69
2022/12/01 00:26:04;;;;;;;57.70;31.10;;;;;;;2.08;100.00;96694.53;5009953;28;102134;-68
2022/12/01 00:28:31;;;;;;;59.17;32.00;;;;;;;2.05;100.00;96687.03;5012707;28;102931;-68
2022/12/01 00:30:58;;;;;;;58.10;32.43;;;;;;;2.27;100.00;96693.84;5027543;28;105988;-68
2022/12/01 00:33:26;;;;;;;60.17;31.20;;;;;;;2.22;100.00;96690.97;5027749;28;102236;-68
2022/12/01 00:35:58;;;;;;;60.60;31.00;;;;;;;2.19;100.00;96688.75;5029605;27;103047;-68
2022/12/01 00:38:26;;;;;;;60.03;32.60;;;;;;;2.15;100.00;96683.09;5028889;27;103680;-68
2022/12/01 00:40:53;;;;;;;61.50;31.80;;;;;;;2.14;100.00;96686.69;5031590;28;102279;-68
2022/12/01 00:43:21;;;;;;;62.67;32.70;;;;;;;2.17;100.00;96690.75;5029549;27;103016;-68
2022/12/01 00:45:48;;;;;;;63.73;32.80;;;;;;;2.08;100.00;96691.91;5027990;28;101901;-68
2022/12/01 00:48:15;;;;;;;62.50;32.50;;;;;;;2.13;100.00;96694.78;5026947;27;104826;-68
2022/12/01 00:50:42;;;;;;;62.67;33.80;;;;;;;2.20;100.00;96701.66;5029494;27;102558;-68
2022/12/01 00:53:09;;;;;;;61.97;32.10;;;;;;;2.29;100.00;96700.53;5027838;28;101914;-69
2022/12/01 00:55:37;;;;;;;59.03;32.47;;;;;;;2.29;100.00;96700.53;5028936;28;102332;-69
2022/12/01 00:58:04;;;;;;;60.53;30.80;;;;;;;2.26;100.00;96700.91;5027169;28;105306;-68
2022/12/01 01:00:33;;;;;;;57.77;30.87;;;;;;;2.22;100.00;96709.34;5033899;27;101988;-68
2022/12/01 01:03:00;;;;;;;60.70;31.23;;;;;;;2.03;100.00;96696.91;5029274;28;105317;-68
2022/12/01 01:05:27;;;;;;;56.23;31.37;;;;;;;2.05;100.00;96698.34;5031264;27;101694;-68
2022/12/01 01:07:54;;;;;;;63.10;31.57;;;;;;;1.99;100.00;96698.28;5029203;28;104779;-68
2022/12/01 01:10:21;;;;;;;59.80;31.77;;;;;;;2.04;100.00;96695.91;5028640;28;105390;-68
2022/12/01 01:12:52;;;;;;;60.73;31.73;;;;;;;2.11;100.00;96687.09;5031210;27;101663;-68
2022/12/01 01:15:19;;;;;;;63.67;31.20;;;;;;;2.10;100.00;96689.88;5031203;27;102493;-69
2022/12/01 01:17:47;;;;;;;62.60;32.40;;;;;;;2.06;100.00;96693.88;5028878;28;105492;-68
2022/12/01 01:20:14;;;;;;;64.83;32.73;;;;;;;2.01;100.00;96688.41;5030517;27;101814;-69
2022/12/01 01:22:42;;;;;;;59.73;30.97;;;;;;;1.98;100.00;96696.66;5032147;28;105724;-68
2022/12/01 01:25:09;;;;;;;65.57;31.93;;;;;;;2.03;100.00;96683.78;5030722;28;101796;-68
2022/12/01 01:27:37;;;;;;;64.73;32.57;;;;;;;1.92;100.00;96687.72;5030523;27;102328;-68
2022/12/01 01:30:05;;;;;;;64.73;31.70;;;;;;;1.93;100.00;96689.38;5028291;28;105557;-68
2022/12/01 01:32:34;;;;;;;62.27;30.80;;;;;;;2.01;100.00;96685.78;5030212;27;101915;-68
2022/12/01 01:35:02;;;;;;;65.20;31.47;;;;;;;2.00;100.00;96692.03;5029125;28;105220;-69
2022/12/01 01:37:29;;;;;;;62.63;32.70;;;;;;;1.98;100.00;96684.34;5028346;28;104035;-69
2022/12/01 01:39:56;;;;;;;68.33;32.93;;;;;;;1.97;100.00;96687.19;5028883;28;102004;-68
2022/12/01 01:42:23;;;;;;;63.97;33.30;;;;;;;1.91;100.00;96688.72;5028824;28;105621;-68
2022/12/01 01:44:53;;;;;;;63.77;32.27;;;;;;;1.86;100.00;96687.69;5031830;28;105697;-68
2022/12/01 01:47:25;;;;;;;61.83;30.83;;;;;;;1.91;100.00;96686.09;5028636;28;105728;-69
2022/12/01 01:49:53;;;;;;;64.63;31.67;;;;;;;1.83;100.00;96680.19;5028132;28;105391;-69
2022/12/01 01:52:23;;;;;;;58.70;32.27;;;;;;;1.79;100.00;96677.13;5028760;28;102075;-68
2022/12/01 01:54:53;;;;;;;60.43;30.30;;;;;;;1.75;100.00;96690.81;5028623;28;105628;-69
2022/12/01 01:57:26;;;;;;;62.60;32.33;;;;;;;1.81;100.00;96684.81;5030033;27;102564;-68
2022/12/01 01:59:58;;;;;;;60.63;30.20;;;;;;;1.82;100.00;96684.63;5029469;27;101705;-68
2022/12/01 02:02:25;;;;;;;59.97;31.40;;;;;;;1.90;100.00;96675.81;5030126;27;102423;-69
2022/12/01 02:04:57;;;;;;;60.57;31.87;;;;;;;1.94;100.00;96677.88;5028487;28;105792;-69
2022/12/01 02:07:26;;;;;;;60.80;31.60;;;;;;;1.90;100.00;96679.25;5031957;28;101866;-69
2022/12/01 02:09:55;;;;;;;64.53;32.23;;;;;;;1.91;100.00;96685.31;5029282;27;102683;-68
2022/12/01 02:12:51;;;;;;;58.63;31.30;;;;;;;1.90;100.00;96673.19;5028169;28;101932;-68
2022/12/01 02:15:28;;;;;;;61.37;32.53;;;;;;;1.87;100.00;96668.34;5030054;27;102364;-69
2022/12/01 02:18:07;;;;;;;61.00;31.47;;;;;;;1.84;100.00;96668.69;5028022;28;105141;-69
2022/12/01 02:21:02;;;;;;;58.77;31.30;;;;;;;1.85;100.00;96667.69;5030002;27;101905;-68
2022/12/01 02:24:02;;;;;;;58.67;30.00;;;;;;;1.78;100.00;96669.44;5029703;27;101651;-68
2022/12/01 02:26:39;;;;;;;58.37;29.43;;;;;;;1.75;100.00;96672.47;5029003;27;102476;-68
2022/12/01 02:29:22;;;;;;;57.30;29.77;;;;;;;1.72;100.00;96668.41;5029604;27;101702;-68
2022/12/01 02:31:57;;;;;;;62.83;32.30;;;;;;;1.82;100.00;96660.22;5030939;28;105185;-68
2022/12/01 02:34:31;;;;;;;59.23;29.67;;;;;;;1.78;100.00;96662.41;5029526;27;101621;-68
2022/12/01 02:37:03;;;;;;;59.93;30.87;;;;;;;1.76;100.00;96663.59;5027949;28;105173;-68
2022/12/01 02:39:34;;;;;;;60.73;30.47;;;;;;;1.75;100.00;96664.59;5027314;28;105471;-68
2022/12/01 02:42:08;;;;;;;60.27;29.67;;;;;;;1.78;100.00;96665.03;5029328;27;101688;-68
2022/12/01 02:44:39;;;;;;;59.20;29.83;;;;;;;1.82;100.00;96665.47;5027947;28;105737;-68
2022/12/01 02:47:13;;;;;;;57.67;29.80;;;;;;;1.92;100.00;96665.94;5028854;27;102544;-68
2022/12/01 02:49:45;;;;;;;58.30;30.03;;;;;;;2.00;100.00;96668.41;5029420;27;101968;-68
2022/12/01 02:52:14;;;;;;;61.90;29.73;;;;;;;2.12;100.00;96666.88;5029251;27;102353;-68
2022/12/01 02:54:43;;;;;;;58.57;29.77;;;;;;;2.07;100.00;96661.44;5030132;28;103943;-68
2022/12/01 02:57:12;;;;;;;58.90;29.93;;;;;;;2.05;100.00;96661.63;5028763;27;103047;-68
2022/12/01 02:59:41;;;;;;;59.90;29.27;;;;;;;2.03;100.00;96668.84;5027157;28;105257;-68
2022/12/01 03:02:23;;;;;;;58.50;29.80;;;;;;;2.05;100.00;96663.41;5028845;27;101820;-68
2022/12/01 03:05:01;;;;;;;58.47;28.60;;;;;;;2.05;100.00;96666.88;5028900;27;102419;-68
2022/12/01 03:07:45;;;;;;;56.63;28.33;;;;;;;2.10;100.00;96666.28;5027011;28;105349;-69
2022/12/01 03:10:20;;;;;;;55.80;28.70;;;;;;;2.06;100.00;96665.03;5027456;28;101875;-68
2022/12/01 03:12:59;;;;;;;55.47;27.83;;;;;;;2.06;100.00;96670.28;5032832;27;102357;-68
2022/12/01 03:15:35;;;;;;;53.90;27.30;;;;;;;2.03;100.00;96665.44;5034090;28;105628;-68
2022/12/01 03:18:10;;;;;;;52.30;27.80;;;;;;;1.99;100.00;96665.00;5032613;27;103001;-68
2022/12/01 03:20:42;;;;;;;55.90;27.60;;;;;;;2.10;100.00;96661.03;5030240;28;105556;-68
2022/12/01 03:23:13;;;;;;;53.90;27.23;;;;;;;2.02;100.00;96661.97;5032332;27;101825;-68
2022/12/01 03:25:46;;;;;;;55.83;28.70;;;;;;;2.04;100.00;96659.19;5032617;28;102541;-68
2022/12/01 03:28:16;;;;;;;53.07;27.83;;;;;;;2.03;100.00;96652.31;5032124;28;102533;-68
2022/12/01 03:30:45;;;;;;;49.30;26.37;;;;;;;2.03;100.00;96657.56;5032028;27;102032;-68
2022/12/01 03:33:19;;;;;;;51.67;26.93;;;;;;;2.02;100.00;96655.94;5032130;27;102286;-68
2022/12/01 03:35:52;;;;;;;48.03;26.03;;;;;;;2.04;100.00;96659.19;5031482;27;103131;-69
2022/12/01 03:38:24;;;;;;;50.17;26.53;;;;;;;2.05;100.00;96650.31;5035841;27;101753;-68
2022/12/01 03:40:54;;;;;;;49.60;27.27;;;;;;;2.05;100.00;96653.75;5031614;27;102769;-68
2022/12/01 03:43:29;;;;;;;50.93;25.97;;;;;;;2.06;100.00;96657.16;5031982;27;101847;-68
2022/12/01 03:46:01;;;;;;;46.43;25.23;;;;;;;2.07;100.00;96654.34;5030865;28;105096;-69
2022/12/01 03:48:31;;;;;;;50.03;25.77;;;;;;;2.06;100.00;96649.28;5031586;27;102581;-69
2022/12/01 03:51:05;;;;;;;47.17;25.83;;;;;;;2.09;100.00;96649.72;5031565;27;101867;-69
2022/12/01 03:53:38;;;;;;;46.67;26.03;;;;;;;2.08;100.00;96658.59;5032165;27;102542;-68
2022/12/01 03:56:08;;;;;;;47.73;26.03;;;;;;;2.06;100.00;96657.16;5031091;28;102702;-69
2022/12/01 03:58:41;;;;;;;50.50;26.10;;;;;;;2.08;100.00;96657.81;5031598;27;101892;-68
2022/12/01 04:01:09;;;;;;;49.10;26.00;;;;;;;1.98;100.00;96657.31;5034886;27;102406;-69
2022/12/01 04:03:37;;;;;;;46.90;25.27;;;;;;;1.97;100.00;96658.31;5031429;27;101825;-68
2022/12/01 04:06:05;;;;;;;50.97;26.90;;;;;;;1.95;100.00;96649.81;5031584;27;102801;-68
2022/12/01 04:08:32;;;;;;;47.50;25.93;;;;;;;2.00;100.00;96652.69;5029727;28;105370;-68
2022/12/01 04:12:27;;;;;;;50.70;25.43;;;;;;;2.07;100.00;96659.59;5030263;28;102017;-68
2022/12/01 04:13:45;;;;;;;47.33;25.53;;;;;;;1.93;100.00;96659.69;5029895;28;105758;-68
2022/12/01 04:16:12;;;;;;;47.50;25.00;;;;;;;1.94;100.00;96662.13;5031072;28;102617;-68
2022/12/01 04:18:41;;;;;;;48.17;26.10;;;;;;;1.95;100.00;96663.75;5031282;27;101896;-68
2022/12/01 04:21:08;;;;;;;50.23;26.80;;;;;;;1.83;100.00;96662.66;5029791;27;105251;-68
2022/12/01 04:26:32;;;;;;;49.47;26.47;;;;;;;1.82;100.00;96668.09;4969243;28;102260;-68
2022/12/01 04:28:59;;;;;;;50.00;25.90;;;;;;;1.83;100.00;96662.66;4951930;28;105525;-68
2022/12/01 04:31:26;;;;;;;49.30;26.17;;;;;;;1.80;100.00;96667.47;4968848;28;101871;-68
2022/12/01 04:33:56;;;;;;;48.57;25.80;;;;;;;1.75;100.00;96670.66;4968918;28;102486;-68
2022/12/01 04:36:23;;;;;;;54.33;27.73;;;;;;;1.81;100.00;96664.63;4968819;28;102718;-69
2022/12/01 04:38:49;;;;;;;53.33;27.13;;;;;;;1.80;100.00;96664.84;4969153;28;102034;-68
2022/12/01 04:41:17;;;;;;;51.43;27.77;;;;;;;1.74;100.00;96674.28;4968663;28;102627;-68
2022/12/01 04:43:44;;;;;;;50.43;26.27;;;;;;;1.65;100.00;96666.72;4951873;28;105560;-68
2022/12/01 04:46:12;;;;;;;48.27;26.30;;;;;;;1.69;100.00;96662.75;4972431;28;101814;-68
2022/12/01 04:48:39;;;;;;;56.60;27.97;;;;;;;1.78;100.00;96658.97;4968076;28;102445;-68
2022/12/01 04:51:08;;;;;;;51.70;25.70;;;;;;;1.84;100.00;96663.44;4968703;28;101859;-68
2022/12/01 04:53:36;;;;;;;52.47;26.67;;;;;;;1.88;100.00;96667.31;4968562;28;102278;-68
2022/12/01 04:56:04;;;;;;;55.73;28.47;;;;;;;1.94;100.00;96672.63;4967745;28;102614;-68
2022/12/01 04:58:36;;;;;;;52.20;27.07;;;;;;;1.93;100.00;96668.41;4968743;28;101881;-68
2022/12/01 05:01:05;;;;;;;56.50;28.33;;;;;;;1.95;100.00;96673.41;4999825;28;105534;-68
2022/12/01 05:03:37;;;;;;;57.70;28.50;;;;;;;1.97;100.00;96669.63;5030286;27;102521;-68
2022/12/01 05:06:09;;;;;;;55.43;29.00;;;;;;;1.84;100.00;96671.31;5029671;28;101774;-68
2022/12/01 05:08:36;;;;;;;54.73;27.70;;;;;;;1.85;100.00;96673.75;5032347;28;106104;-68
2022/12/01 05:11:06;;;;;;;54.37;26.80;;;;;;;1.90;100.00;96673.19;5029308;28;101836;-68
2022/12/01 05:13:33;;;;;;;60.47;29.13;;;;;;;1.86;100.00;96672.75;5029289;28;105800;-68
2022/12/01 05:16:06;;;;;;;54.53;27.93;;;;;;;1.78;100.00;96670.28;5029748;27;102537;-69
2022/12/01 05:18:33;;;;;;;54.80;26.67;;;;;;;1.84;100.00;96671.31;5030798;27;101738;-68
2022/12/01 05:20:59;;;;;;;57.17;28.00;;;;;;;1.91;100.00;96670.38;5030488;27;102254;-68
2022/12/01 05:23:30;;;;;;;52.00;25.30;;;;;;;1.97;100.00;96674.06;5030036;28;102738;-68
2022/12/01 05:25:58;;;;;;;52.77;28.17;;;;;;;2.02;100.00;96674.31;5030716;27;101893;-68
2022/12/01 05:28:26;;;;;;;54.53;27.03;;;;;;;1.97;100.00;96674.84;5033062;27;102326;-68
2022/12/01 05:30:54;;;;;;;50.80;27.23;;;;;;;1.95;100.00;96681.28;5028551;28;101903;-68
2022/12/01 05:33:22;;;;;;;50.40;26.33;;;;;;;1.98;100.00;96681.72;5029307;27;102822;-68
2022/12/01 05:35:49;;;;;;;55.07;27.73;;;;;;;1.97;100.00;96677.47;5028629;28;105667;-68
2022/12/01 05:38:16;;;;;;;52.87;26.90;;;;;;;1.89;100.00;96676.81;5030174;27;101949;-68
2022/12/01 05:40:50;;;;;;;47.83;26.33;;;;;;;1.88;100.00;96680.44;5028804;28;105401;-68
2022/12/01 05:43:17;;;;;;;55.00;27.00;;;;;;;1.95;100.00;96676.03;5029600;27;102462;-68
2022/12/01 05:45:44;;;;;;;51.17;25.47;;;;;;;1.99;100.00;96682.53;5030099;27;101833;-68
2022/12/01 05:48:11;;;;;;;50.23;25.90;;;;;;;2.05;100.00;96676.53;5030103;28;102616;-68
2022/12/01 05:50:39;;;;;;;56.13;28.37;;;;;;;2.07;100.00;96671.94;5032501;28;104162;-68
2022/12/01 05:53:07;;;;;;;51.37;26.67;;;;;;;2.07;100.00;96674.56;5029979;27;102954;-68
2022/12/01 05:55:34;;;;;;;50.40;26.83;;;;;;;2.01;100.00;96678.72;5028971;27;102658;-68
2022/12/01 05:58:03;;;;;;;51.77;27.33;;;;;;;2.02;100.00;96676.94;5028774;28;102317;-68
2022/12/01 06:00:30;;;;;;;56.13;28.40;;;;;;;2.11;100.00;96681.00;5029558;27;102215;-67
2022/12/01 06:02:57;;;;;;;52.77;27.80;;;;;;;2.12;100.00;96683.44;5029067;27;102567;-67
2022/12/01 06:05:24;;;;;;;54.40;27.37;;;;;;;2.15;100.00;96683.09;5028537;28;101770;-66
2022/12/01 06:07:51;;;;;;;50.70;27.07;;;;;;;2.20;100.00;96679.88;5028335;28;105083;-67
2022/12/01 06:10:18;;;;;;;53.20;27.37;;;;;;;2.22;100.00;96681.31;5027787;28;105358;-67
2022/12/01 06:12:45;;;;;;;50.50;26.47;;;;;;;2.21;100.00;96682.31;5033219;27;101841;-67
2022/12/01 06:15:13;;;;;;;51.47;28.27;;;;;;;2.20;100.00;96685.13;5029327;27;103002;-67
2022/12/01 06:17:40;;;;;;;50.13;26.07;;;;;;;2.15;100.00;96679.63;5028283;28;101866;-67
2022/12/01 06:20:08;;;;;;;58.20;29.10;;;;;;;2.14;100.00;96678.03;5029682;27;102401;-67
2022/12/01 06:22:35;;;;;;;50.60;27.03;;;;;;;2.03;100.00;96679.34;5028929;27;102765;-67
2022/12/01 06:25:02;;;;;;;57.33;29.30;;;;;;;2.09;100.00;96678.56;5027956;28;101846;-67
2022/12/01 06:27:29;;;;;;;54.30;27.63;;;;;;;2.09;100.00;96683.03;5029502;27;102741;-67
2022/12/01 06:29:57;;;;;;;53.73;30.07;;;;;;;2.10;100.00;96685.47;5028813;27;102720;-67
2022/12/01 06:32:25;;;;;;;58.63;30.60;;;;;;;2.10;100.00;96689.88;5029401;27;101756;-67
2022/12/01 06:34:52;;;;;;;57.30;29.83;;;;;;;2.11;100.00;96696.75;5031129;28;104833;-67
2022/12/01 06:37:19;;;;;;;55.10;28.83;;;;;;;2.05;100.00;96694.88;5029529;27;101989;-67
2022/12/01 06:39:46;;;;;;;54.63;29.40;;;;;;;2.01;100.00;96694.47;5028003;28;105091;-67
2022/12/01 06:42:14;;;;;;;55.17;29.30;;;;;;;2.02;100.00;96693.47;5028792;27;102483;-67
2022/12/01 06:44:41;;;;;;;55.80;29.03;;;;;;;2.02;100.00;96697.91;5027797;28;101779;-67
2022/12/01 06:47:08;;;;;;;52.00;27.97;;;;;;;2.03;100.00;96697.69;5027793;28;105238;-67
2022/12/01 06:49:37;;;;;;;53.47;28.60;;;;;;;2.04;100.00;96706.38;5028944;27;103297;-67
2022/12/01 06:52:04;;;;;;;57.43;28.17;;;;;;;2.10;100.00;96700.38;5029021;28;101870;-67
2022/12/01 06:54:32;;;;;;;56.40;29.40;;;;;;;2.07;100.00;96700.78;5027278;28;105236;-67
2022/12/01 06:56:59;;;;;;;57.30;29.80;;;;;;;2.09;100.00;96704.81;5030545;28;105760;-67
2022/12/01 06:59:26;;;;;;;54.73;29.53;;;;;;;2.14;100.00;96720.78;5027741;28;105769;-67
2022/12/01 07:01:53;;;;;;;54.57;28.73;;;;;;;2.14;100.00;96712.91;5027023;28;106440;-67
2022/12/01 07:04:20;;;;;;;57.30;29.13;;;;;;;2.19;100.00;96721.03;5029064;28;101834;-67
2022/12/01 07:06:49;;;;;;;56.00;28.63;;;;;;;2.16;100.00;96718.81;5027954;28;103732;-67
2022/12/01 07:09:16;;;;;;;53.20;28.23;;;;;;;2.21;100.00;96718.22;5028840;27;102652;-67
2022/12/01 07:11:43;;;;;;;54.80;28.17;;;;;;;2.27;100.00;96720.06;5027816;27;102052;-67
2022/12/01 07:14:19;;;;;;;52.83;27.77;;;;;;;2.36;100.00;96717.13;5029340;27;102426;-67
2022/12/01 07:16:46;;;;;;;56.93;29.60;;;;;;;2.36;100.00;96716.31;5027155;28;105068;-67
2022/12/01 07:19:12;;;;;;;58.63;31.90;;;;;;;2.30;100.00;96727.59;5030807;28;101752;-67
2022/12/01 07:21:39;;;;;;;65.50;33.50;;;;;;;2.25;100.00;96729.97;5028311;27;102908;-67
2022/12/01 07:24:11;;;;;;;61.37;31.57;;;;;;;2.31;100.00;96729.19;5028866;27;101887;-67
2022/12/01 07:26:39;;;;;;;63.33;33.57;;;;;;;2.35;100.00;96727.81;5028564;28;102861;-67
2022/12/01 07:29:07;;;;;;;59.63;31.70;;;;;;;2.32;100.00;96721.16;5026869;28;107488;-67
2022/12/01 07:31:34;;;;;;;56.87;29.53;;;;;;;2.35;100.00;96723.38;5028667;27;101802;-67
2022/12/01 07:34:01;;;;;;;57.07;29.93;;;;;;;2.46;100.00;96722.06;5028377;27;102392;-67
2022/12/01 07:36:29;;;;;;;52.83;29.10;;;;;;;2.54;100.00;96733.22;5026778;28;106181;-67
2022/12/01 07:38:56;;;;;;;55.87;30.13;;;;;;;2.54;100.00;96730.59;5030725;28;101789;-67
2022/12/01 07:41:25;;;;;;;53.30;29.30;;;;;;;2.61;100.00;96730.59;5028051;27;102801;-67
2022/12/01 07:43:53;;;;;;;55.63;29.57;;;;;;;2.62;100.00;96729.63;5028537;27;101999;-67
2022/12/01 07:46:22;;;;;;;53.67;28.67;;;;;;;2.63;100.00;96733.88;5028495;28;102446;-67
2022/12/01 07:48:49;;;;;;;46.70;26.53;;;;;;;2.72;100.00;96732.69;5027801;28;102733;-67
2022/12/01 07:51:17;;;;;;;46.30;26.10;;;;;;;2.79;100.00;96725.69;5028708;27;102193;-67
2022/12/01 07:53:45;;;;;;;48.27;27.93;;;;;;;2.80;100.00;96727.31;5028375;27;102514;-67
2022/12/01 07:56:13;;;;;;;50.03;26.70;;;;;;;2.78;100.00;96729.31;5027138;27;103185;-67
2022/12/01 07:58:42;;;;;;;46.20;25.40;;;;;;;2.90;100.00;96731.19;5031846;27;101821;-67
2022/12/01 08:01:11;;;;;;;43.23;24.27;;;;;;;3.07;100.00;96737.72;5034836;27;102527;-66
2022/12/01 08:03:38;;;;;;;47.73;27.57;;;;;;;3.02;100.00;96740.16;5031276;27;101805;-68
2022/12/01 08:06:06;;;;;;;46.07;25.17;;;;;;;3.21;100.00;96735.97;5029809;28;105605;-68
2022/12/01 08:08:35;;;;;;;48.43;25.07;;;;;;;3.41;100.00;96734.22;5030734;27;103657;-68
2022/12/01 08:11:04;;;;;;;47.23;26.33;;;;;;;3.47;100.00;96738.69;5030323;27;101857;-68
2022/12/01 08:13:32;;;;;;;49.30;27.23;;;;;;;3.38;100.00;96734.66;5030051;28;103772;-68
2022/12/01 08:16:04;;;;;;;48.57;26.20;;;;;;;3.52;100.00;96738.91;5030039;28;103962;-68
2022/12/01 08:18:32;;;;;;;48.13;26.30;;;;;;;3.57;100.00;96736.50;5030314;27;102042;-68
2022/12/01 08:20:59;;;;;;;47.10;25.43;;;;;;;3.64;100.00;96734.69;5029903;28;104268;-68
2022/12/01 08:23:26;;;;;;;46.37;26.00;;;;;;;3.61;100.00;96728.00;5032166;28;104037;-68
2022/12/01 08:25:53;;;;;;;50.67;27.13;;;;;;;3.57;100.00;96734.69;5030018;28;104892;-68
2022/12/01 08:28:20;;;;;;;47.80;26.13;;;;;;;3.62;100.00;96731.47;5029428;28;105255;-68
2022/12/01 08:30:47;;;;;;;46.37;27.37;;;;;;;3.56;100.00;96737.53;5031211;27;101785;-68
2022/12/01 08:33:16;;;;;;;47.10;26.27;;;;;;;3.60;100.00;96728.22;5031172;27;102610;-68
2022/12/01 08:35:43;;;;;;;49.50;26.03;;;;;;;3.56;100.00;96733.06;5030837;27;101888;-68
2022/12/01 08:38:11;;;;;;;48.20;25.70;;;;;;;3.56;100.00;96737.53;5031151;27;101817;-68
2022/12/01 08:40:38;;;;;;;49.93;26.70;;;;;;;3.56;100.00;96734.88;5029119;28;105180;-68
2022/12/01 08:43:05;;;;;;;46.80;25.03;;;;;;;3.62;100.00;96736.72;5030204;27;102650;-68
2022/12/01 08:45:32;;;;;;;44.63;25.03;;;;;;;3.54;100.00;96742.16;5033134;28;101779;-68
2022/12/01 08:47:59;;;;;;;48.40;25.13;;;;;;;3.63;100.00;96740.97;5028537;28;105299;-68
2022/12/01 08:50:28;;;;;;;47.17;26.27;;;;;;;3.60;100.00;96733.50;5030977;27;101813;-68
2022/12/01 08:52:55;;;;;;;49.37;25.20;;;;;;;3.58;100.00;96740.75;5029610;28;104821;-68
2022/12/01 08:55:22;;;;;;;47.20;25.03;;;;;;;3.67;100.00;96739.56;5028736;28;105512;-68
2022/12/01 08:57:49;;;;;;;47.43;24.50;;;;;;;3.41;100.00;96739.50;5030948;27;101892;-68
2022/12/01 09:00:16;;;;;;;48.00;25.37;;;;;;;3.52;100.00;96741.53;5029159;28;105119;-68
2022/12/01 09:02:45;;;;;;;47.90;25.53;;;;;;;3.51;100.00;96738.13;5030249;27;103062;-68
2022/12/01 09:05:13;;;;;;;45.77;25.20;;;;;;;3.49;100.00;96739.34;5029676;28;101774;-68
2022/12/01 09:07:44;;;;;;;51.50;24.93;;;;;;;3.51;100.00;96743.38;5033221;27;102354;-68
2022/12/01 09:10:12;;;;;;;48.53;25.43;;;;;;;3.57;100.00;96742.59;5030173;28;101687;-68
2022/12/01 09:12:39;;;;;;;49.23;26.67;;;;;;;3.71;100.00;96740.81;5030412;28;102913;-68
2022/12/01 09:15:06;;;;;;;47.73;26.80;;;;;;;3.84;100.00;96744.28;5028692;28;105412;-68
2022/12/01 09:17:33;;;;;;;43.17;25.07;;;;;;;3.79;100.00;96743.22;5029237;28;102183;-68
2022/12/01 09:20:00;;;;;;;48.07;25.70;;;;;;;3.80;100.00;96739.59;5029281;28;104857;-68
2022/12/01 09:22:27;;;;;;;47.40;24.90;;;;;;;3.89;100.00;96743.66;5028441;28;105391;-68
2022/12/01 09:24:55;;;;;;;49.60;24.73;;;;;;;3.85;100.00;96750.31;5029515;28;102005;-68
2022/12/01 09:27:22;;;;;;;48.47;25.17;;;;;;;3.70;100.00;96741.78;5029828;27;101689;-68
2022/12/01 09:29:49;;;;;;;45.43;24.57;;;;;;;3.90;100.00;96750.53;5032995;27;101800;-68
2022/12/01 09:32:17;;;;;;;45.97;24.70;;;;;;;3.90;100.00;96750.53;5029169;28;105804;-68
2022/12/01 09:34:44;;;;;;;47.53;25.10;;;;;;;3.95;100.00;96748.13;5029906;27;102987;-68
2022/12/01 09:37:12;;;;;;;42.80;24.07;;;;;;;3.95;100.00;96748.13;5030395;27;101801;-68
2022/12/01 09:39:39;;;;;;;44.67;24.63;;;;;;;3.89;100.00;96748.91;5030246;27;102357;-68
2022/12/01 09:42:14;;;;;;;44.50;24.83;;;;;;;3.77;100.00;96740.00;5028280;28;105778;-68
2022/12/01 09:44:46;;;;;;;45.70;22.97;;;;;;;3.81;100.00;96733.31;5029321;28;101888;-68
2022/12/01 09:47:17;;;;;;;43.27;24.10;;;;;;;3.82;100.00;96730.50;5029058;28;105144;-68
2022/12/01 09:49:52;;;;;;;44.77;24.33;;;;;;;3.98;100.00;96731.94;5031721;28;105381;-68
2022/12/01 09:52:20;;;;;;;43.97;23.77;;;;;;;4.03;100.00;96730.31;5028860;28;105754;-68
2022/12/01 09:54:48;;;;;;;48.80;26.37;;;;;;;3.96;100.00;96723.44;5029289;27;102541;-68
2022/12/01 09:57:32;;;;;;;47.83;25.30;;;;;;;4.12;100.00;96723.03;5028589;28;101676;-68
2022/12/01 10:00:01;;;;;;;44.33;24.47;;;;;;;4.12;100.00;96720.41;5030011;27;102780;-68
2022/12/01 10:02:43;;;;;;;44.80;23.53;;;;;;;4.29;100.00;96713.72;5026329;28;102348;-68
2022/12/01 10:05:15;;;;;;;43.43;23.90;;;;;;;4.31;100.00;96703.81;5028670;28;101764;-68
2022/12/01 10:07:47;;;;;;;42.87;23.23;;;;;;;4.34;100.00;96706.84;5029971;27;102334;-68
2022/12/01 10:10:18;;;;;;;41.97;22.83;;;;;;;4.33;100.00;96707.88;5028196;28;105330;-68
2022/12/01 10:12:50;;;;;;;41.40;22.83;;;;;;;4.43;100.00;96713.50;5033236;27;101752;-68
2022/12/01 10:15:29;;;;;;;39.60;22.97;;;;;;;4.65;100.00;96703.56;5029663;27;102607;-68
2022/12/01 10:18:11;;;;;;;37.10;21.50;;;;;;;4.23;100.00;96698.72;5028793;28;102335;-68
2022/12/01 10:20:48;;;;;;;42.63;22.50;;;;;;;4.14;100.00;96702.59;5029564;27;102514;-68
2022/12/01 10:23:39;;;;;;;41.10;21.83;;;;;;;3.98;100.00;96698.53;5027848;28;105345;-68
2022/12/01 10:26:14;;;;;;;39.73;21.47;;;;;;;3.74;100.00;96698.31;5029705;27;101861;-68
2022/12/01 10:28:59;;;;;;;39.53;21.37;;;;;;;3.85;100.00;96695.91;5028282;28;104973;-68
2022/12/01 10:31:33;;;;;;;40.00;21.70;;;;;;;3.95;100.00;96696.31;5029490;27;103145;-68
2022/12/01 10:34:03;;;;;;;37.13;20.77;;;;;;;3.89;100.00;96691.03;5028285;28;101734;-68
2022/12/01 10:36:33;;;;;;;39.10;21.27;;;;;;;3.90;100.00;96692.66;5030976;28;105333;-68
2022/12/01 10:39:00;;;;;;;36.67;20.83;;;;;;;3.76;100.00;96683.16;5029332;28;101819;-68
2022/12/01 10:41:30;;;;;;;38.80;20.43;;;;;;;3.68;100.00;96685.97;5029227;27;102297;-68
2022/12/01 10:44:01;;;;;;;34.83;20.37;;;;;;;3.76;100.00;96680.53;5027333;28;105475;-68
2022/12/01 10:46:35;;;;;;;37.57;20.03;;;;;;;3.76;100.00;96675.28;5028026;28;101998;-68
2022/12/01 10:49:09;;;;;;;37.17;21.73;;;;;;;3.91;100.00;96679.31;5029667;27;102278;-68
2022/12/01 10:51:48;;;;;;;34.37;20.50;;;;;;;3.80;100.00;96673.81;5027473;28;105316;-68
2022/12/01 10:54:15;;;;;;;34.67;19.23;;;;;;;3.83;100.00;96676.06;5027713;28;101848;-68
2022/12/01 10:56:45;;;;;;;38.83;20.87;;;;;;;3.97;100.00;96677.69;5029052;27;102908;-68
2022/12/01 10:59:26;;;;;;;39.17;21.33;;;;;;;3.92;100.00;96674.84;5030878;28;106347;-68
2022/12/01 11:01:54;;;;;;;36.27;20.10;;;;;;;4.01;100.00;96671.84;5028991;27;102325;-68
2022/12/01 11:04:41;;;;;;;36.73;20.20;;;;;;;4.10;100.00;96672.44;5028356;27;102480;-68
2022/12/01 11:07:16;;;;;;;35.77;20.97;;;;;;;4.07;100.00;96667.56;5028013;28;102145;-68
2022/12/01 11:09:45;;;;;;;42.47;21.73;;;;;;;3.91;100.00;96666.16;5029205;27;102955;-68
2022/12/01 11:12:18;;;;;;;36.67;20.13;;;;;;;3.72;100.00;96672.19;5026955;28;105260;-68
2022/12/01 11:14:50;;;;;;;39.67;21.73;;;;;;;3.80;100.00;96660.69;5027672;28;101759;-68
2022/12/01 11:17:26;;;;;;;34.50;20.17;;;;;;;3.78;100.00;96667.97;5027614;28;104472;-68
2022/12/01 11:19:54;;;;;;;36.93;21.07;;;;;;;3.93;100.00;96665.97;5027143;28;105211;-68
2022/12/01 11:22:23;;;;;;;39.77;21.43;;;;;;;4.03;100.00;96667.16;5032298;28;101826;-68
2022/12/01 11:25:02;;;;;;;34.90;19.57;;;;;;;3.92;100.00;96661.69;5028278;27;102727;-68